Time;durP1;ratioP1;P1;durP2;ratioP2;P2;SDS_P1;SDS_P2;PMS_P1;PMS_P2;Temp;Humidity;BMP_temperature;BMP_pressure;BME280_temperature;BME280_humidity;BME280_pressure;Samples;Min_cycle;Max_cycle;Signal;HPM_P1;HPM_P2
2023/05/02 00:00:55;;;;;;;2.83;1.60;;;;;;;14.23;100.00;100574.56;4994590;28;20046;-88
2023/05/02 00:03:23;;;;;;;2.13;2.03;;;;;;;14.15;100.00;100556.81;5012449;28;20397;-85
2023/05/02 00:05:51;;;;;;;1.58;1.48;;;;;;;14.29;100.00;100567.00;5012023;28;20046;-85
2023/05/02 00:08:18;;;;;;;2.35;2.15;;;;;;;14.01;100.00;100556.81;4994454;28;20041;-87
2023/05/02 00:10:46;;;;;;;1.98;1.88;;;;;;;14.13;100.00;100558.25;4997362;28;20050;-86
2023/05/02 00:13:14;;;;;;;1.73;1.63;;;;;;;14.15;99.30;100543.06;5016039;28;20401;-87
2023/05/02 00:15:42;;;;;;;2.00;1.90;;;;;;;14.10;99.78;100543.16;4998268;28;20382;-87
2023/05/02 00:18:10;;;;;;;2.20;2.00;;;;;;;14.03;100.00;100527.03;4981963;28;20045;-86
2023/05/02 00:20:40;;;;;;;2.35;2.15;;;;;;;14.16;100.00;100511.66;5015901;28;20060;-86
2023/05/02 00:23:08;;;;;;;1.92;1.73;;;;;;;14.22;100.00;100513.19;5015768;28;20042;-87
2023/05/02 00:25:36;;;;;;;2.15;2.05;;;;;;;14.29;97.66;100500.97;5016060;28;20661;-88
2023/05/02 00:28:04;;;;;;;2.03;1.92;;;;;;;14.10;98.49;100490.88;4965841;28;20072;-88
2023/05/02 00:30:32;;;;;;;2.50;2.13;;;;;;;14.08;98.41;100490.38;4981973;28;20050;-87
2023/05/02 00:33:00;;;;;;;2.28;2.08;;;;;;;14.17;98.35;100485.78;5015781;28;20396;-86
2023/05/02 00:35:28;;;;;;;2.42;2.25;;;;;;;14.15;99.83;100478.94;4966033;28;20050;-85
2023/05/02 00:37:58;;;;;;;3.50;2.20;;;;;;;14.27;97.71;100468.22;4998194;28;20049;-86
2023/05/02 00:40:26;;;;;;;2.80;2.60;;;;;;;14.31;97.81;100466.50;4998048;28;20552;-89
2023/05/02 00:42:54;;;;;;;2.30;2.10;;;;;;;14.19;100.00;100463.47;5015613;28;20393;-89
2023/05/02 00:45:22;;;;;;;2.20;2.00;;;;;;;14.35;99.88;100466.69;4998156;28;20049;-88
2023/05/02 00:47:50;;;;;;;3.42;2.40;;;;;;;14.28;99.63;100458.03;4981440;28;20046;-88
2023/05/02 00:50:18;;;;;;;2.10;2.00;;;;;;;14.27;99.40;100459.16;4997816;28;20405;-89
2023/05/02 00:52:46;;;;;;;2.15;1.95;;;;;;;14.28;97.03;100469.88;4965312;28;20057;-87
2023/05/02 00:55:14;;;;;;;2.75;2.53;;;;;;;14.46;97.77;100468.09;4997380;28;20485;-88
2023/05/02 00:57:42;;;;;;;2.00;1.90;;;;;;;14.48;97.61;100465.84;4981152;28;20401;-89
2023/05/02 01:00:11;;;;;;;2.35;2.15;;;;;;;14.58;95.72;100455.75;4997308;28;20042;-88
2023/05/02 01:02:57;;;;;;;2.30;2.10;;;;;;;14.59;95.68;100455.44;4997678;28;20045;-88
2023/05/02 01:05:40;;;;;;;2.50;1.90;;;;;;;14.57;95.90;100456.88;5015076;28;20046;-88
2023/05/02 01:08:24;;;;;;;2.63;2.00;;;;;;;14.36;97.40;100455.38;4980790;28;20057;-87
2023/05/02 01:11:05;;;;;;;2.65;1.77;;;;;;;14.28;97.09;100460.78;5014735;28;20042;-87
2023/05/02 01:13:36;;;;;;;2.40;2.08;;;;;;;14.43;97.11;100457.72;5014823;28;20042;-87
2023/05/02 01:16:06;;;;;;;1.73;1.63;;;;;;;14.43;95.91;100465.16;4980886;28;20049;-84
2023/05/02 01:18:39;;;;;;;1.67;1.58;;;;;;;14.34;99.21;100452.13;4997317;28;20054;-85
2023/05/02 01:21:10;;;;;;;1.63;1.50;;;;;;;14.28;99.60;100447.03;5013285;28;20065;-87
2023/05/02 01:24:04;;;;;;;1.95;1.85;;;;;;;14.52;96.47;100461.34;4997044;28;20053;-87
2023/05/02 01:26:51;;;;;;;1.77;1.63;;;;;;;14.52;97.65;100452.28;4996997;28;20053;-84
2023/05/02 01:29:22;;;;;;;1.58;1.48;;;;;;;14.36;95.00;100469.16;5014221;28;20050;-85
2023/05/02 01:31:50;;;;;;;1.60;1.50;;;;;;;14.41;96.20;100465.47;4996661;28;20050;-84
2023/05/02 01:34:21;;;;;;;1.85;1.75;;;;;;;14.32;98.46;100462.63;5014356;28;20041;-83
2023/05/02 01:36:51;;;;;;;1.90;1.80;;;;;;;14.35;98.74;100456.50;4980868;28;20413;-83
2023/05/02 01:39:21;;;;;;;1.77;1.67;;;;;;;14.30;99.00;100445.59;4996402;28;20476;-82
2023/05/02 01:41:52;;;;;;;1.70;1.60;;;;;;;14.31;97.25;100447.22;4996842;28;20045;-83
2023/05/02 01:44:22;;;;;;;2.08;1.98;;;;;;;14.27;98.57;100453.66;5014059;28;20045;-83
2023/05/02 01:46:54;;;;;;;1.75;1.65;;;;;;;14.24;98.76;100447.63;5014128;28;20034;-82
2023/05/02 01:49:24;;;;;;;1.98;1.77;;;;;;;14.47;97.84;100442.19;5013735;28;20045;-82
2023/05/02 01:51:52;;;;;;;3.08;1.85;;;;;;;14.54;95.67;100446.47;4995807;28;20054;-85
2023/05/02 01:54:23;;;;;;;1.80;1.70;;;;;;;14.42;96.40;100450.56;5014064;28;20050;-83
2023/05/02 01:56:51;;;;;;;2.45;1.77;;;;;;;14.65;95.54;100450.59;5013245;28;20042;-84
2023/05/02 01:59:22;;;;;;;1.65;1.55;;;;;;;14.62;92.26;100449.28;4996097;28;20395;-85
2023/05/02 02:01:51;;;;;;;1.60;1.50;;;;;;;14.54;94.88;100447.28;4996165;28;20046;-82
2023/05/02 02:04:21;;;;;;;1.70;1.60;;;;;;;14.66;94.02;100455.00;4996318;28;20046;-82
2023/05/02 02:07:01;;;;;;;1.50;1.40;;;;;;;14.55;93.11;100450.84;4996268;28;20118;-83
2023/05/02 02:09:30;;;;;;;1.27;1.20;;;;;;;14.34;93.25;100459.56;5013075;28;20042;-83
2023/05/02 02:12:06;;;;;;;3.10;1.75;;;;;;;14.45;93.96;100460.16;4995827;28;20049;-82
2023/05/02 02:14:37;;;;;;;1.50;1.40;;;;;;;14.54;92.58;100469.31;5013646;28;20046;-83
2023/05/02 02:17:12;;;;;;;1.55;1.45;;;;;;;14.47;95.07;100455.97;5013673;28;20050;-83
2023/05/02 02:19:41;;;;;;;1.23;1.13;;;;;;;14.49;95.54;100456.47;5013328;28;20049;-82
2023/05/02 02:22:13;;;;;;;1.38;1.27;;;;;;;14.50;93.60;100460.88;5013160;28;20049;-82
2023/05/02 02:24:43;;;;;;;1.33;1.23;;;;;;;14.69;96.30;100459.06;5013390;28;20056;-83
2023/05/02 02:27:12;;;;;;;2.95;1.58;;;;;;;14.71;94.33;100451.31;4995805;28;20042;-82
2023/05/02 02:29:40;;;;;;;1.52;1.42;;;;;;;14.54;94.17;100444.53;5012883;28;20053;-82
2023/05/02 02:32:07;;;;;;;1.10;1.10;;;;;;;14.63;93.71;100450.91;5013025;28;20061;-83
2023/05/02 02:34:35;;;;;;;1.40;1.30;;;;;;;14.76;94.77;100446.53;5013172;28;20057;-82
2023/05/02 02:37:13;;;;;;;1.55;1.35;;;;;;;14.61;96.87;100446.84;5013072;28;20049;-82
2023/05/02 02:40:06;;;;;;;1.50;1.40;;;;;;;14.64;96.62;100460.00;4995310;28;20041;-83
2023/05/02 02:42:49;;;;;;;1.13;1.10;;;;;;;14.56;96.63;100455.25;4995446;28;20050;-82
2023/05/02 02:45:42;;;;;;;1.83;1.20;;;;;;;14.73;92.83;100451.81;5013221;28;20042;-82
2023/05/02 02:48:34;;;;;;;1.38;1.27;;;;;;;14.78;92.82;100447.00;5002753;28;20057;-81
2023/05/02 02:51:21;;;;;;;1.17;1.08;;;;;;;14.90;92.19;100445.66;5012722;28;20050;-82
2023/05/02 02:54:05;;;;;;;1.20;1.10;;;;;;;14.85;94.44;100456.78;5012935;28;20053;-82
2023/05/02 02:57:01;;;;;;;1.13;1.10;;;;;;;14.71;96.23;100449.38;4995301;28;20425;-81
2023/05/02 02:59:40;;;;;;;1.38;1.20;;;;;;;14.71;97.49;100463.13;4995064;28;20045;-81
2023/05/02 03:02:12;;;;;;;1.95;1.10;;;;;;;14.68;98.32;100461.03;4995302;28;20057;-81
2023/05/02 03:04:42;;;;;;;1.30;1.20;;;;;;;14.57;100.00;100459.63;5012878;28;20057;-81
2023/05/02 03:07:10;;;;;;;1.00;1.00;;;;;;;14.47;100.00;100453.22;5012534;28;20476;-81
2023/05/02 03:09:46;;;;;;;0.95;0.90;;;;;;;14.34;100.00;100481.59;5012446;28;20404;-81
2023/05/02 03:12:20;;;;;;;1.40;1.30;;;;;;;14.21;100.00;100484.03;4995056;28;20484;-81
2023/05/02 03:14:49;;;;;;;1.08;1.00;;;;;;;14.15;98.74;100489.94;4994835;28;20492;-81
2023/05/02 03:17:17;;;;;;;1.27;1.17;;;;;;;14.10;95.90;100488.94;4995005;28;20053;-81
2023/05/02 03:19:46;;;;;;;0.70;0.70;;;;;;;14.13;97.74;100487.50;4994687;28;20046;-81
2023/05/02 03:22:14;;;;;;;0.60;0.60;;;;;;;14.34;96.86;100487.91;4994483;28;20390;-81
2023/05/02 03:24:42;;;;;;;0.70;0.70;;;;;;;14.18;98.29;100479.13;4994885;28;20062;-81
2023/05/02 03:27:12;;;;;;;0.70;0.70;;;;;;;14.12;97.38;100474.88;4994740;28;20045;-81
2023/05/02 03:29:42;;;;;;;0.68;0.63;;;;;;;14.17;97.14;100484.97;4994542;28;20408;-81
2023/05/02 03:32:11;;;;;;;0.60;0.60;;;;;;;14.19;92.95;100482.72;4994610;28;20046;-82
2023/05/02 03:34:41;;;;;;;0.52;0.52;;;;;;;14.18;91.51;100481.91;4994587;28;20053;-81
2023/05/02 03:37:10;;;;;;;0.43;0.43;;;;;;;14.20;92.27;100481.59;4994537;28;20038;-81
2023/05/02 03:39:38;;;;;;;0.57;0.57;;;;;;;14.46;92.60;100475.53;4994415;28;20060;-81
2023/05/02 03:42:06;;;;;;;0.70;0.70;;;;;;;14.39;94.06;100481.47;4994804;28;20495;-81
2023/05/02 03:44:34;;;;;;;0.68;0.68;;;;;;;14.50;92.79;100487.56;4995176;28;20065;-81
2023/05/02 03:47:02;;;;;;;0.60;0.50;;;;;;;14.52;93.65;100488.91;4998702;28;20400;-81
2023/05/02 03:49:35;;;;;;;0.75;0.63;;;;;;;14.46;95.22;100479.13;4998236;28;20045;-82
2023/05/02 03:52:04;;;;;;;0.50;0.45;;;;;;;14.37;94.92;100480.94;4997772;28;20377;-82
2023/05/02 03:54:34;;;;;;;0.40;0.40;;;;;;;14.28;98.30;100483.66;4998644;28;20045;-82
2023/05/02 03:57:03;;;;;;;0.80;0.80;;;;;;;14.38;99.81;100488.13;4998617;28;20057;-82
2023/05/02 03:59:34;;;;;;;0.60;0.60;;;;;;;14.31;100.00;100510.53;4998394;28;20485;-82
2023/05/02 04:02:13;;;;;;;0.77;0.77;;;;;;;14.26;100.00;100507.09;4979246;28;20051;-82
2023/05/02 04:04:46;;;;;;;0.70;0.70;;;;;;;14.19;99.04;100505.56;4996541;28;20050;-82
2023/05/02 04:07:18;;;;;;;0.63;0.63;;;;;;;14.26;99.69;100512.59;4979171;28;20046;-82
2023/05/02 04:09:52;;;;;;;0.50;0.50;;;;;;;14.31;99.94;100501.44;5000269;28;20128;-82
2023/05/02 04:12:21;;;;;;;0.80;0.80;;;;;;;14.39;100.00;100511.75;4997882;28;20052;-82
2023/05/02 04:14:51;;;;;;;0.57;0.57;;;;;;;14.31;100.00;100504.19;4998350;28;20042;-82
2023/05/02 04:17:22;;;;;;;0.60;0.60;;;;;;;14.38;100.00;100512.88;4978185;28;20501;-82
2023/05/02 04:19:51;;;;;;;1.45;0.70;;;;;;;14.32;100.00;100520.41;4983574;28;20037;-81
2023/05/02 04:22:23;;;;;;;2.90;0.77;;;;;;;14.17;100.00;100520.75;4983396;28;20506;-81
2023/05/02 04:24:55;;;;;;;0.93;0.93;;;;;;;14.09;100.00;100511.25;4975437;28;20050;-82
2023/05/02 04:27:25;;;;;;;0.60;0.60;;;;;;;14.04;100.00;100519.63;4975173;28;20045;-82
2023/05/02 04:29:53;;;;;;;0.70;0.70;;;;;;;13.96;100.00;100521.97;4974995;28;20035;-82
2023/05/02 04:32:22;;;;;;;1.83;0.60;;;;;;;14.08;100.00;100529.69;4955876;29;20050;-82
2023/05/02 04:34:51;;;;;;;1.05;0.75;;;;;;;14.08;100.00;100529.69;4955605;28;20047;-84
2023/05/02 04:37:20;;;;;;;0.60;0.60;;;;;;;14.12;100.00;100532.66;4955851;29;20503;-85
2023/05/02 04:39:48;;;;;;;0.80;0.70;;;;;;;14.19;100.00;100541.34;4955682;28;20046;-85
2023/05/02 04:42:20;;;;;;;0.70;0.60;;;;;;;14.15;100.00;100539.47;4971514;28;20058;-85
2023/05/02 04:45:14;;;;;;;0.70;0.70;;;;;;;14.13;100.00;100537.03;4973863;28;20055;-84
2023/05/02 04:47:44;;;;;;;0.63;0.57;;;;;;;14.29;100.00;100545.81;4974545;28;20039;-85
2023/05/02 04:50:13;;;;;;;1.17;1.08;;;;;;;14.27;100.00;100561.00;4959260;28;20046;-85
2023/05/02 04:52:42;;;;;;;0.73;0.73;;;;;;;14.21;100.00;100547.34;4976503;28;20047;-84
2023/05/02 04:55:22;;;;;;;0.50;0.50;;;;;;;14.18;100.00;100547.94;4976383;28;20114;-88
2023/05/02 04:57:50;;;;;;;0.55;0.52;;;;;;;14.21;100.00;100558.34;4972958;28;20039;-80
2023/05/02 05:00:18;;;;;;;1.00;0.70;;;;;;;14.14;100.00;100557.94;4959548;28;20038;-83
2023/05/02 05:02:46;;;;;;;0.60;0.60;;;;;;;14.23;100.00;100558.84;4967213;28;20047;-83
2023/05/02 05:05:15;;;;;;;0.75;0.70;;;;;;;14.23;100.00;100556.09;4974213;28;20058;-88
2023/05/02 05:07:44;;;;;;;0.88;0.88;;;;;;;14.32;100.00;100567.22;4974342;28;20051;-87
2023/05/02 05:10:14;;;;;;;1.02;0.80;;;;;;;14.26;100.00;100573.94;4957864;28;20062;-87
2023/05/02 05:12:45;;;;;;;0.88;0.88;;;;;;;14.33;100.00;100582.59;4974121;28;20047;-87
2023/05/02 05:15:15;;;;;;;0.70;0.70;;;;;;;14.30;100.00;100580.47;4957361;28;20051;-88
2023/05/02 05:17:48;;;;;;;;;;;;;;;14.40;100.00;100589.63;4975357;28;20054;-87
2023/05/02 05:20:17;;;;;;;0.80;0.80;;;;;;;14.41;100.00;100592.09;4958030;28;19937;-87
2023/05/02 05:22:45;;;;;;;0.80;0.80;;;;;;;14.39;100.00;100588.84;4958548;28;20478;-88
2023/05/02 05:25:14;;;;;;;2.15;1.05;;;;;;;14.57;100.00;100589.03;4974241;28;20046;-88
2023/05/02 05:27:43;;;;;;;1.33;0.90;;;;;;;14.61;100.00;100595.56;4958292;28;20043;-87
2023/05/02 05:30:12;;;;;;;1.48;0.98;;;;;;;14.58;100.00;100590.66;4974419;28;20058;-85
2023/05/02 05:32:42;;;;;;;1.45;1.25;;;;;;;14.62;100.00;100600.75;4974166;28;20062;-86
2023/05/02 05:35:10;;;;;;;1.83;1.13;;;;;;;14.49;100.00;100613.44;4974321;28;20042;-85
2023/05/02 05:37:39;;;;;;;3.13;1.23;;;;;;;14.71;100.00;100606.38;4958030;28;20497;-85
2023/05/02 05:40:10;;;;;;;1.55;1.45;;;;;;;14.75;100.00;100601.91;4970371;28;20043;-86
2023/05/02 05:42:41;;;;;;;1.40;1.00;;;;;;;14.89;98.49;100598.31;4957679;28;20046;-86
2023/05/02 05:45:18;;;;;;;1.30;0.98;;;;;;;14.86;99.86;100608.00;4975159;28;20402;-86
2023/05/02 05:47:46;;;;;;;0.80;0.80;;;;;;;14.76;100.00;100598.03;4973762;28;20050;-86
2023/05/02 05:50:15;;;;;;;0.98;0.98;;;;;;;14.88;100.00;100602.19;4973707;28;20487;-86
2023/05/02 05:52:44;;;;;;;1.15;0.90;;;;;;;14.84;100.00;100603.94;4973780;28;20057;-86
2023/05/02 05:55:12;;;;;;;0.82;0.82;;;;;;;14.78;100.00;100611.50;4973616;28;20051;-86
2023/05/02 05:57:40;;;;;;;0.85;0.85;;;;;;;14.93;100.00;100602.09;4973568;28;20050;-86
2023/05/02 06:00:09;;;;;;;2.28;1.20;;;;;;;15.09;100.00;100599.81;4973656;28;20043;-86
2023/05/02 06:02:46;;;;;;;1.98;1.10;;;;;;;15.21;100.00;100604.78;4974561;28;20051;-86
2023/05/02 06:05:41;;;;;;;1.15;1.15;;;;;;;14.87;100.00;100592.31;4972715;28;20067;-86
2023/05/02 06:08:09;;;;;;;1.35;1.25;;;;;;;15.09;100.00;100593.47;4973040;28;20517;-86
2023/05/02 06:10:36;;;;;;;1.05;0.95;;;;;;;15.26;100.00;100590.06;4974391;28;20050;-85
2023/05/02 06:13:05;;;;;;;0.93;0.85;;;;;;;15.43;98.86;100601.22;4974562;28;20050;-86
2023/05/02 06:15:36;;;;;;;3.45;1.00;;;;;;;15.39;96.19;100607.69;4973130;28;20490;-86
2023/05/02 06:18:06;;;;;;;1.83;1.20;;;;;;;15.49;99.60;100617.66;4972983;28;20043;-86
2023/05/02 06:20:35;;;;;;;1.30;1.17;;;;;;;15.58;99.81;100619.34;4974217;28;20062;-86
2023/05/02 06:23:03;;;;;;;2.25;1.30;;;;;;;15.59;100.00;100618.22;5007416;28;20049;-86
2023/05/02 06:25:32;;;;;;;4.10;1.63;;;;;;;15.65;100.00;100626.38;4995679;28;20046;-86
2023/05/02 06:28:00;;;;;;;1.40;1.30;;;;;;;15.76;100.00;100627.75;4979772;28;20054;-86
2023/05/02 06:30:28;;;;;;;2.30;1.73;;;;;;;15.65;100.00;100638.19;5012986;28;20496;-86
2023/05/02 06:32:56;;;;;;;1.65;1.40;;;;;;;15.61;100.00;100630.88;5012949;28;20050;-85
2023/05/02 06:35:24;;;;;;;1.63;1.45;;;;;;;15.75;100.00;100642.69;5012731;28;20050;-85
2023/05/02 06:37:52;;;;;;;2.63;1.58;;;;;;;15.88;98.67;100649.25;4995603;28;20050;-86
2023/05/02 06:40:20;;;;;;;1.27;1.17;;;;;;;16.06;99.79;100652.97;5012900;28;20049;-86
2023/05/02 06:42:48;;;;;;;1.55;1.45;;;;;;;15.96;97.08;100656.00;5013715;28;20052;-85
2023/05/02 06:45:16;;;;;;;2.55;1.73;;;;;;;16.21;96.98;100654.53;4995272;28;20057;-86
2023/05/02 06:47:44;;;;;;;1.70;1.60;;;;;;;16.31;96.49;100658.94;5012732;28;20053;-86
2023/05/02 06:50:12;;;;;;;1.50;1.40;;;;;;;16.23;100.00;100656.97;5012754;28;20061;-86
2023/05/02 06:52:40;;;;;;;1.88;1.60;;;;;;;16.53;96.62;100671.09;5012628;28;20046;-85
2023/05/02 06:55:08;;;;;;;1.67;1.45;;;;;;;16.42;98.44;100665.00;5012697;28;20385;-86
2023/05/02 06:57:36;;;;;;;1.90;1.75;;;;;;;16.37;99.06;100660.44;5012685;28;20038;-86
2023/05/02 07:00:04;;;;;;;2.28;2.08;;;;;;;16.29;97.14;100671.44;5012532;28;20385;-86
2023/05/02 07:02:32;;;;;;;2.92;2.00;;;;;;;16.45;98.24;100671.84;5012585;28;20042;-86
2023/05/02 07:05:00;;;;;;;1.65;1.55;;;;;;;16.46;96.94;100681.75;5012365;28;20050;-86
2023/05/02 07:07:28;;;;;;;2.20;1.92;;;;;;;16.55;97.54;100667.97;5012618;28;20053;-86
2023/05/02 07:09:56;;;;;;;2.40;2.20;;;;;;;16.74;99.15;100676.03;4995186;28;20042;-86
2023/05/02 07:12:25;;;;;;;2.38;1.80;;;;;;;16.80;95.23;100669.22;5012540;28;20038;-86
2023/05/02 07:14:53;;;;;;;1.88;1.60;;;;;;;17.00;93.23;100678.03;4978735;28;20033;-86
2023/05/02 07:17:21;;;;;;;1.20;1.10;;;;;;;17.01;94.49;100674.16;5012366;28;20046;-86
2023/05/02 07:19:50;;;;;;;1.83;1.50;;;;;;;17.08;94.67;100669.00;4994166;28;20519;-85
2023/05/02 07:22:18;;;;;;;2.72;1.33;;;;;;;17.01;89.43;100674.97;5012095;28;20041;-85
2023/05/02 07:24:46;;;;;;;1.83;1.40;;;;;;;17.05;95.37;100664.09;4994622;28;20511;-86
2023/05/02 07:27:14;;;;;;;1.00;1.00;;;;;;;17.03;89.43;100667.22;5012152;28;20046;-85
2023/05/02 07:29:42;;;;;;;2.70;1.20;;;;;;;17.10;86.98;100671.47;4994439;28;20050;-85
2023/05/02 07:32:10;;;;;;;1.15;1.00;;;;;;;17.06;83.87;100671.28;5012138;28;20436;-85
2023/05/02 07:34:38;;;;;;;4.28;1.27;;;;;;;17.24;87.61;100660.22;4993362;28;20061;-85
2023/05/02 07:37:06;;;;;;;2.17;1.23;;;;;;;17.39;86.33;100672.78;5012083;28;20045;-84
2023/05/02 07:39:33;;;;;;;1.23;1.13;;;;;;;17.32;85.41;100685.13;4994092;28;20042;-84
2023/05/02 07:42:02;;;;;;;1.05;0.90;;;;;;;17.34;80.94;100682.06;5011959;28;20053;-84
2023/05/02 07:44:32;;;;;;;1.70;1.30;;;;;;;17.60;80.80;100684.03;4993983;28;20520;-85
2023/05/02 07:47:00;;;;;;;0.90;0.90;;;;;;;17.80;85.79;100693.59;5012059;28;20399;-84
2023/05/02 07:49:28;;;;;;;1.63;1.20;;;;;;;17.73;85.28;100698.84;5011996;28;20053;-84
2023/05/02 07:51:56;;;;;;;3.03;0.90;;;;;;;17.81;87.37;100691.66;5012060;28;20046;-84
2023/05/02 07:54:25;;;;;;;1.27;0.90;;;;;;;17.90;87.58;100700.78;4994526;28;20053;-83
2023/05/02 07:56:53;;;;;;;2.28;1.33;;;;;;;17.69;90.63;100684.84;4994634;28;20604;-83
2023/05/02 07:59:21;;;;;;;1.60;1.10;;;;;;;17.72;89.70;100697.22;4994577;28;20042;-84
2023/05/02 08:01:49;;;;;;;1.40;1.30;;;;;;;17.75;88.75;100696.56;5011887;28;20042;-83
2023/05/02 08:04:17;;;;;;;0.85;0.85;;;;;;;17.79;87.23;100707.81;4994646;28;20053;-83
2023/05/02 08:06:45;;;;;;;2.33;1.13;;;;;;;17.69;88.95;100706.97;4994692;28;20050;-83
2023/05/02 08:09:13;;;;;;;1.17;1.08;;;;;;;17.58;87.57;100714.78;4993294;28;20049;-83
2023/05/02 08:11:41;;;;;;;0.90;0.90;;;;;;;17.79;84.96;100716.09;5012034;28;20057;-83
2023/05/02 08:14:09;;;;;;;1.00;0.90;;;;;;;17.84;83.92;100715.94;4993866;28;20056;-83
2023/05/02 08:16:37;;;;;;;1.08;0.70;;;;;;;17.96;86.02;100718.88;5011657;28;20037;-84
2023/05/02 08:19:05;;;;;;;0.70;0.70;;;;;;;17.99;86.08;100718.19;5011674;28;20068;-83
2023/05/02 08:21:34;;;;;;;1.02;0.93;;;;;;;18.27;82.70;100714.28;5011548;28;20038;-84
2023/05/02 08:24:01;;;;;;;0.68;0.68;;;;;;;18.48;82.07;100714.38;5011751;28;20493;-84
2023/05/02 08:26:29;;;;;;;0.90;0.73;;;;;;;18.70;81.12;100722.78;5011743;28;20045;-83
2023/05/02 08:28:57;;;;;;;2.05;0.90;;;;;;;18.94;81.19;100728.56;5011612;28;20045;-84
2023/05/02 08:31:25;;;;;;;1.85;1.20;;;;;;;19.03;79.97;100723.00;4995893;28;20045;-83
2023/05/02 08:33:53;;;;;;;2.65;1.00;;;;;;;19.25;78.36;100720.28;5015251;28;20057;-83
2023/05/02 08:36:21;;;;;;;1.13;1.00;;;;;;;18.92;78.51;100718.94;5015009;28;20056;-83
2023/05/02 08:38:49;;;;;;;2.13;0.98;;;;;;;18.99;79.81;100727.56;5015076;28;20400;-84
2023/05/02 08:41:18;;;;;;;3.88;1.08;;;;;;;19.42;79.80;100730.44;4997549;28;20061;-81
2023/05/02 08:43:46;;;;;;;0.93;0.93;;;;;;;19.28;78.72;100725.13;5014967;28;20053;-83
2023/05/02 08:46:16;;;;;;;0.98;0.90;;;;;;;19.57;78.20;100729.03;5014972;28;20038;-83
2023/05/02 08:48:47;;;;;;;1.20;0.70;;;;;;;19.66;79.39;100734.50;5014781;28;20046;-83
2023/05/02 08:51:16;;;;;;;1.42;0.95;;;;;;;19.55;76.07;100729.34;4997457;28;20042;-84
2023/05/02 08:53:51;;;;;;;1.52;1.20;;;;;;;19.67;79.20;100736.94;5014770;28;20046;-83
2023/05/02 08:56:20;;;;;;;1.70;0.85;;;;;;;19.79;76.21;100750.06;5014576;28;20073;-84
2023/05/02 08:58:48;;;;;;;1.63;0.98;;;;;;;19.67;77.53;100748.06;5014571;28;20122;-84
2023/05/02 09:01:18;;;;;;;1.65;1.10;;;;;;;19.43;76.70;100757.84;5014638;28;20077;-84
2023/05/02 09:03:47;;;;;;;2.40;1.13;;;;;;;19.34;76.88;100757.09;4980767;28;20497;-84
2023/05/02 09:06:20;;;;;;;1.25;1.10;;;;;;;19.40;76.24;100752.97;4997424;28;20042;-85
2023/05/02 09:08:51;;;;;;;1.33;1.10;;;;;;;19.41;76.51;100749.03;5014597;28;20082;-84
2023/05/02 09:11:20;;;;;;;1.63;1.10;;;;;;;19.78;74.09;100755.97;5014576;28;20061;-85
2023/05/02 09:13:50;;;;;;;1.05;0.88;;;;;;;19.54;78.32;100752.72;5014483;28;20057;-84
2023/05/02 09:16:21;;;;;;;0.88;0.88;;;;;;;19.70;79.32;100754.91;5014193;28;20046;-84
2023/05/02 09:18:51;;;;;;;2.67;1.42;;;;;;;19.65;78.36;100771.75;5014359;28;20054;-85
2023/05/02 09:21:24;;;;;;;1.80;1.50;;;;;;;19.59;77.44;100769.16;5014161;28;20060;-83
2023/05/02 09:23:54;;;;;;;1.20;1.10;;;;;;;19.87;77.96;100767.81;4996835;28;20050;-85
2023/05/02 09:26:33;;;;;;;1.17;0.75;;;;;;;19.50;75.67;100764.84;5014214;28;20404;-84
2023/05/02 09:29:04;;;;;;;1.98;1.00;;;;;;;19.77;74.59;100777.38;5014128;28;20046;-85
2023/05/02 09:31:40;;;;;;;1.10;0.77;;;;;;;19.57;76.49;100774.25;5014060;28;20056;-85
2023/05/02 09:34:13;;;;;;;1.05;0.95;;;;;;;19.88;74.51;100778.59;5014079;28;20046;-84
2023/05/02 09:36:49;;;;;;;0.90;0.90;;;;;;;19.67;74.90;100777.78;5013926;28;20061;-84
2023/05/02 09:39:19;;;;;;;1.27;1.02;;;;;;;19.77;75.33;100782.94;5013992;28;20046;-85
2023/05/02 09:41:51;;;;;;;0.97;0.93;;;;;;;18.74;78.71;100790.28;4996166;28;20046;-83
2023/05/02 09:44:22;;;;;;;1.20;1.10;;;;;;;19.36;81.97;100788.09;5013545;28;20054;-85
2023/05/02 09:46:53;;;;;;;0.95;0.90;;;;;;;19.18;80.83;100784.59;5013817;28;20485;-84
2023/05/02 09:49:44;;;;;;;2.20;1.10;;;;;;;19.25;82.71;100795.97;5013747;28;20049;-84
2023/05/02 09:52:15;;;;;;;0.93;0.93;;;;;;;19.02;81.93;100789.84;5002576;28;20061;-85
2023/05/02 09:54:45;;;;;;;1.50;0.60;;;;;;;18.86;82.78;100781.28;5013433;28;20050;-85
2023/05/02 09:57:13;;;;;;;0.80;0.80;;;;;;;18.93;83.33;100787.13;5013527;28;20057;-86
2023/05/02 09:59:55;;;;;;;1.08;0.70;;;;;;;18.94;82.58;100788.75;5013509;28;20493;-85
2023/05/02 10:02:24;;;;;;;1.13;0.98;;;;;;;19.04;78.03;100807.81;5013507;28;20505;-86
2023/05/02 10:04:55;;;;;;;0.80;0.80;;;;;;;18.85;79.83;100788.78;5013398;28;20046;-86
2023/05/02 10:07:25;;;;;;;1.42;0.80;;;;;;;19.04;80.02;100802.28;5013406;28;20042;-85
2023/05/02 10:09:57;;;;;;;1.80;0.90;;;;;;;18.79;80.00;100788.16;5013222;28;20054;-87
2023/05/02 10:12:27;;;;;;;1.75;0.98;;;;;;;18.28;82.61;100796.22;5013401;28;20062;-85
2023/05/02 10:15:02;;;;;;;1.27;0.70;;;;;;;17.93;84.91;100785.94;4995609;28;20065;-86
2023/05/02 10:17:38;;;;;;;0.60;0.60;;;;;;;17.68;84.50;100799.44;5013440;28;20061;-87
2023/05/02 10:20:07;;;;;;;1.02;0.88;;;;;;;17.49;85.76;100790.63;5013181;28;20046;-87
2023/05/02 10:22:35;;;;;;;1.70;1.58;;;;;;;17.80;84.08;100787.72;5012809;28;20049;-87
2023/05/02 10:25:04;;;;;;;1.90;1.08;;;;;;;17.83;84.85;100786.25;5013271;28;20042;-85
2023/05/02 10:27:32;;;;;;;1.05;0.95;;;;;;;18.12;84.56;100795.91;5013884;28;20050;-87
2023/05/02 10:30:03;;;;;;;1.33;0.93;;;;;;;18.02;83.56;100790.69;5013028;28;20401;-85
2023/05/02 10:32:36;;;;;;;0.82;0.80;;;;;;;18.07;84.68;100790.53;5013668;28;20054;-87
2023/05/02 10:35:06;;;;;;;0.95;0.73;;;;;;;18.10;86.05;100792.66;4995124;28;20053;-87
2023/05/02 10:37:37;;;;;;;1.10;1.00;;;;;;;18.26;87.59;100804.88;5012737;28;20057;-84
2023/05/02 10:40:10;;;;;;;1.27;0.90;;;;;;;18.21;84.94;100799.50;5012894;28;20122;-85
2023/05/02 10:42:42;;;;;;;1.20;1.10;;;;;;;18.05;84.18;100792.78;5012974;28;20053;-87
2023/05/02 10:45:29;;;;;;;1.02;1.00;;;;;;;18.21;83.08;100796.72;5012824;28;20046;-87
2023/05/02 10:48:17;;;;;;;1.20;0.90;;;;;;;18.33;84.54;100800.81;5014006;28;20050;-87
2023/05/02 10:50:50;;;;;;;2.10;0.90;;;;;;;18.38;84.62;100800.63;5012875;28;20477;-87
2023/05/02 10:53:30;;;;;;;0.70;0.70;;;;;;;18.44;82.78;100795.72;5012796;28;20050;-86
2023/05/02 10:56:15;;;;;;;0.90;0.90;;;;;;;18.47;84.95;100795.88;4995227;28;20057;-87
2023/05/02 10:58:48;;;;;;;2.17;1.10;;;;;;;18.88;80.24;100790.06;5012524;28;20049;-85
2023/05/02 11:01:28;;;;;;;0.77;0.73;;;;;;;19.01;78.51;100802.91;5012689;28;20038;-88
2023/05/02 11:03:58;;;;;;;1.15;1.05;;;;;;;18.82;81.33;100796.94;4994846;28;20401;-86
2023/05/02 11:06:27;;;;;;;0.52;0.52;;;;;;;18.61;78.33;100792.09;5001369;28;20057;-85
2023/05/02 11:09:17;;;;;;;1.67;0.85;;;;;;;19.00;78.79;100792.13;4992141;28;20046;-86
2023/05/02 11:11:46;;;;;;;0.73;0.73;;;;;;;18.90;75.38;100785.00;4992344;28;20050;-87
2023/05/02 11:14:33;;;;;;;0.70;0.70;;;;;;;19.42;74.11;100797.03;4991913;28;20046;-84
2023/05/02 11:17:02;;;;;;;0.95;0.60;;;;;;;19.40;75.25;100794.59;4992469;28;20046;-85
2023/05/02 11:19:37;;;;;;;0.68;0.68;;;;;;;19.73;73.76;100793.91;4974792;28;20405;-86
2023/05/02 11:22:16;;;;;;;1.50;0.80;;;;;;;19.55;71.07;100798.75;4992233;28;20050;-85
2023/05/02 11:24:46;;;;;;;0.63;0.63;;;;;;;19.61;73.19;100805.72;4992206;28;20050;-83
2023/05/02 11:27:29;;;;;;;2.85;1.00;;;;;;;19.40;71.96;100804.88;4992751;28;20051;-84
2023/05/02 11:30:02;;;;;;;0.83;0.83;;;;;;;19.73;69.53;100791.13;4991833;28;20042;-84
2023/05/02 11:32:44;;;;;;;0.88;0.88;;;;;;;19.70;68.40;100802.09;4991655;28;20547;-84
2023/05/02 11:35:19;;;;;;;0.73;0.70;;;;;;;18.92;71.69;100796.59;4992900;28;20050;-85
2023/05/02 11:38:00;;;;;;;0.90;0.90;;;;;;;19.16;69.48;100786.91;4991469;28;20054;-85
2023/05/02 11:40:29;;;;;;;1.20;1.10;;;;;;;19.27;69.27;100795.66;4996283;28;20085;-85
2023/05/02 11:42:59;;;;;;;0.98;0.98;;;;;;;18.91;70.62;100794.94;4992116;28;20508;-84